ДАННЫЕ О ПОГОДЕ

ВЧЕРА
Time Темп. Т росы. Влаж. Давл.
00:00 6.4 3.6 82 1018
00:21 6.2 3.4 82 1018.3
00:31 6.2 3.4 82 1018.5
00:40 6.1 3.3 82 1018.5
00:51 6 3.2 82 1018.5
01:01 5.9 3.1 82 1018.5
01:12 5.8 3 82 1018.6
01:21 5.7 2.9 82 1018.8
01:31 5.6 2.8 82 1018.9
01:42 5.5 2.7 82 1019
01:52 5.4 2.6 82 1019
02:01 5.3 2.5 82 1019.1
02:11 5.2 2.4 82 1019.2
02:21 5.1 2.3 82 1019.2
02:32 5 2.2 82 1019.3
02:41 4.9 2.1 82 1019.3
02:51 4.8 2 82 1019.4
03:02 4.6 1.8 82 1019.4
03:11 4.6 1.8 82 1019.5
03:22 4.5 1.7 82 1019.5
03:32 4.4 1.6 82 1019.6
03:42 4.3 1.5 82 1019.7
03:52 4.2 1.4 82 1019.9
04:02 4.1 1.3 82 1020
04:12 4.1 1.3 82 1020
04:22 4 1.2 82 1020
04:32 3.9 1.1 82 1020.1
04:42 3.9 1.1 82 1020.2
04:52 3.9 1.1 82 1020.2
05:02 4 1.2 82 1020.2
05:11 4.1 1.3 82 1020.2
05:22 4.2 1.4 82 1020.2
05:32 4.3 1.7 83 1020.3
05:42 4.4 1.8 83 1020.4
05:52 4.5 1.9 83 1020.5
06:02 4.6 2 83 1020.4
06:12 4.6 2 83 1020.4
06:23 4.7 2.1 83 1020.6
06:32 4.8 2.2 83 1020.6
06:42 4.8 2.2 83 1020.6
06:52 4.9 2.3 83 1020.5
07:02 4.9 2.3 83 1020.7
07:12 5 2.4 83 1020.6
07:23 5 2.4 83 1020.6
07:33 5.1 2.5 83 1020.7
07:42 5.1 2.5 83 1020.7
07:53 5.1 2.5 83 1020.8
08:03 5.2 2.6 83 1020.9
08:13 5.3 2.7 83 1020.9
08:22 5.3 2.7 83 1021
08:33 5.3 2.7 83 1021
08:43 5.4 2.7 83 1021
08:53 5.4 2.7 83 1021
09:03 5.5 2.8 83 1021.1
09:13 5.5 2.8 83 1021.2
09:23 5.6 2.9 83 1021.3
09:33 5.7 3 83 1021.4
09:43 5.7 3 83 1021.6
09:54 5.8 3.1 83 1021.6
10:04 5.8 3.1 83 1021.8
10:13 5.9 3.2 83 1021.8
10:24 6 3.3 83 1021.9
10:34 6.1 3.4 83 1022
10:44 6.2 3.5 83 1022.2
10:54 6.2 3.5 83 1022.2
11:04 6.4 3.7 83 1022.3
11:14 6.4 3.7 83 1022.4
11:24 6.5 3.8 83 1022.4
11:34 6.4 3.7 83 1022.4
11:44 6.4 3.7 83 1022.4
11:54 6.4 3.7 83 1022.4
12:00 6.4 3.7 83 1022.4
12:15 6.4 3.6 82 1022.4
12:20 6.5 3.7 82 1022.4
12:30 6.7 3.8 82 1022.3
12:40 7 4.1 82 1022.3
12:55 7 4.1 82 1022.3
13:05 6.9 4 82 1022.2
13:25 7 4 81 1022.2
13:35 7 4 81 1022.2
13:45 7 4 81 1022.1
13:55 7 4 81 1022.2
14:06 7 4 81 1022.2
14:16 7.1 4.1 81 1022.2
14:26 7.3 4.3 81 1022.2
14:36 7.4 4.4 81 1022.3
14:46 7.3 4.3 81 1022.4
14:56 7.2 4 80 1022.5
15:06 7.1 3.9 80 1022.5
15:16 7.1 3.9 80 1022.6
15:26 7.2 4 80 1022.7
15:36 7.3 4.1 80 1022.7
15:46 7.2 4 80 1022.8
15:56 7.1 3.7 79 1022.9
16:06 7.1 3.7 79 1022.9
16:16 7.1 3.7 79 1023
16:26 7.1 3.7 79 1023.1
16:36 7.1 3.7 79 1023.1
16:47 7 3.6 79 1023.2
16:56 7 3.6 79 1023.3
17:06 6.9 3.5 79 1023.5
17:16 6.8 3.2 78 1023.5
17:27 6.8 3.2 78 1023.6
17:36 6.8 3.2 78 1023.7
17:46 6.7 3.1 78 1023.7
17:57 6.6 3 78 1023.9
18:07 6.5 2.9 78 1023.9
18:16 6.5 2.9 78 1024
18:27 6.5 2.9 78 1024.1
18:37 6.4 2.8 78 1024.2
18:47 6.4 2.8 78 1024.2
18:56 6.4 2.8 78 1024.4
19:07 6.3 2.8 78 1024.4
19:17 6.3 2.8 78 1024.4
19:26 6.2 2.7 78 1024.5
19:37 6.1 2.6 78 1024.6
19:47 6.1 2.6 78 1024.8
19:57 6.1 2.6 78 1024.9
20:07 6.1 2.6 78 1025
20:17 6.1 2.6 78 1025
20:27 6.1 2.6 78 1025.1
20:37 6 2.5 78 1025.2
20:47 6 2.5 78 1025.3
20:57 5.9 2.4 78 1025.5
21:07 5.9 2.4 78 1025.5
21:17 5.9 2.4 78 1025.6
21:27 5.8 2.3 78 1025.7
21:37 5.8 2.3 78 1025.8
21:47 5.7 2.2 78 1025.9
21:58 5.7 2.2 78 1025.9
22:07 5.7 2.2 78 1026
22:17 5.7 2.2 78 1026.1
22:27 5.7 2.2 78 1026.3
22:37 5.6 2.1 78 1026.3
22:47 5.6 2.1 78 1026.4
22:57 5.5 2 78 1026.5
23:08 5.4 1.9 78 1026.5
23:17 5.3 1.8 78 1026.6
23:27 5.2 1.9 79 1026.8
23:38 5.2 1.9 79 1027
23:48 5.1 1.8 79 1027
23:57 5.1 1.8 79 1027.2

СТАТИСТИКА ЗА ДЕНЬ

2020-01-18
TЕМПЕРАТУРА
СРЕДНЯЯ
5.8
МАКСИМАЛЬНАЯ
7.4
14:36
МИНИМАЛЬНАЯ
3.9
04:32
ДАВЛЕНИЕ
СРЕДНЯЯ
1022.2
МАКСИМАЛЬНАЯ
1027.2
23:57
МИНИМАЛЬНАЯ
1018.0
00:00
ТОЧКА РОСЫ
СРЕДНЯЯ
2.8
МАКСИМАЛЬНАЯ
4.4
14:36
МИНИМАЛЬНАЯ
1.1
04:32
ВЛАЖНОСТЬ
СРЕДНЯЯ
81
МАКСИМАЛЬНАЯ
83
05:32
МИНИМАЛЬНАЯ
78
17:16
TЕМПЕРАТУРА (°C)
МИНИМАЛЬНАЯ
3.9
МАКСИМАЛЬНАЯ
7.4
СРЕДНЯЯ
5.8
ДАВЛЕНИЕ (hpa)
МИНИМАЛЬНАЯ
1018.0
МАКСИМАЛЬНАЯ
1027.2
СРЕДНЯЯ
1022.2
УСТРОЙСТВО